createdAt,value
2018-12-03T00:01:45.996Z,89.77
2018-12-03T00:04:19.177Z,87.97
2018-12-03T00:06:49.888Z,80.43
2018-12-03T00:09:21.437Z,87.03
2018-12-03T00:11:52.196Z,84.03
2018-12-03T00:14:22.817Z,86.40
2018-12-03T00:16:52.418Z,84.00
2018-12-03T00:19:23.617Z,85.67
2018-12-03T00:21:54.447Z,84.80
2018-12-03T00:24:25.055Z,84.70
2018-12-03T00:26:55.697Z,86.00
2018-12-03T00:29:26.457Z,81.80
2018-12-03T00:31:57.806Z,83.00
2018-12-03T00:34:28.134Z,80.93
2018-12-03T00:36:59.056Z,79.40
2018-12-03T00:39:28.598Z,79.70
2018-12-03T00:41:58.937Z,80.53
2018-12-03T00:44:29.451Z,86.10
2018-12-03T00:46:59.678Z,82.57
2018-12-03T00:49:29.957Z,77.63
2018-12-03T00:52:00.200Z,88.27
2018-12-03T00:54:30.541Z,82.13
2018-12-03T00:57:00.737Z,83.37
2018-12-03T00:59:31.628Z,76.47
2018-12-03T01:02:02.757Z,84.27
2018-12-03T01:04:32.887Z,81.93
2018-12-03T01:07:03.797Z,81.10
2018-12-03T01:09:34.567Z,78.20
2018-12-03T01:12:04.908Z,84.00
2018-12-03T01:14:34.957Z,86.37
2018-12-03T01:17:05.812Z,77.93
2018-12-03T01:19:35.747Z,80.00
2018-12-03T01:22:06.929Z,75.70
2018-12-03T01:24:37.486Z,76.00
2018-12-03T01:27:07.867Z,70.77
2018-12-03T01:29:38.956Z,72.07
2018-12-03T01:32:09.097Z,79.17
2018-12-03T01:34:39.426Z,77.63
2018-12-03T01:37:09.707Z,84.07
2018-12-03T01:39:40.278Z,84.40
2018-12-03T01:42:10.237Z,86.27
2018-12-03T01:44:41.057Z,79.23
2018-12-03T01:47:11.447Z,88.87
2018-12-03T01:49:42.442Z,83.13
2018-12-03T01:52:12.757Z,82.53
2018-12-03T01:54:43.348Z,80.57
2018-12-03T01:57:14.357Z,81.73
2018-12-03T01:59:44.757Z,81.77
2018-12-03T02:02:15.188Z,77.13
2018-12-03T02:04:45.777Z,77.43
2018-12-03T02:07:16.046Z,77.33
2018-12-03T02:09:46.296Z,74.03
2018-12-03T02:12:16.648Z,82.47
2018-12-03T02:14:46.657Z,75.67
2018-12-03T02:17:16.856Z,75.97
2018-12-03T02:19:47.128Z,76.03
2018-12-03T02:22:17.346Z,78.53
2018-12-03T02:24:47.556Z,75.17
2018-12-03T02:27:18.056Z,73.60
2018-12-03T02:29:48.096Z,71.77
2018-12-03T02:32:18.537Z,77.10
2018-12-03T02:34:49.341Z,76.37
2018-12-03T02:37:19.618Z,75.03
2018-12-03T02:39:50.297Z,75.27
2018-12-03T02:42:20.497Z,72.67
2018-12-03T02:44:51.447Z,69.13
2018-12-03T02:47:21.948Z,71.87
2018-12-03T02:49:52.947Z,70.40
2018-12-03T02:52:23.516Z,72.13
2018-12-03T02:54:54.050Z,70.83
2018-12-03T02:57:24.658Z,63.20
2018-12-03T02:59:54.846Z,69.47
2018-12-03T03:02:25.296Z,68.60
2018-12-03T03:04:56.036Z,65.23
2018-12-03T03:07:26.675Z,66.17
2018-12-03T03:09:57.387Z,67.53
2018-12-03T03:12:27.927Z,68.50
2018-12-03T03:14:58.105Z,71.40
2018-12-03T03:17:28.247Z,68.53
2018-12-03T03:19:58.797Z,64.87
2018-12-03T03:22:29.446Z,67.40
2018-12-03T03:24:59.389Z,64.00
2018-12-03T03:27:29.607Z,68.57
2018-12-03T03:29:59.696Z,61.63
2018-12-03T03:32:29.731Z,64.60
2018-12-03T03:34:59.997Z,60.50
2018-12-03T03:37:30.637Z,57.83
2018-12-03T03:40:00.897Z,57.37
2018-12-03T03:42:31.897Z,57.83
2018-12-03T03:45:01.917Z,55.50
2018-12-03T03:47:32.406Z,55.00
2018-12-03T03:50:02.918Z,53.97
2018-12-03T03:52:33.427Z,53.10
2018-12-03T03:55:03.941Z,55.07
2018-12-03T03:57:34.288Z,58.17
2018-12-03T04:00:04.996Z,59.47
2018-12-03T04:02:35.467Z,57.27
2018-12-03T04:05:07.766Z,56.30
2018-12-03T04:07:39.228Z,56.37
2018-12-03T04:10:13.886Z,62.40
2018-12-03T04:12:46.857Z,62.00
2018-12-03T04:15:17.616Z,65.87
2018-12-03T04:17:47.717Z,72.83
2018-12-03T04:20:21.097Z,68.23
2018-12-03T04:22:55.386Z,67.93
2018-12-03T04:25:26.079Z,67.67
2018-12-03T04:27:56.917Z,68.23
2018-12-03T04:30:27.746Z,54.77
2018-12-03T04:32:58.536Z,58.70
2018-12-03T04:35:29.966Z,56.90
2018-12-03T04:38:00.461Z,57.30
2018-12-03T04:40:31.191Z,59.83
2018-12-03T04:43:02.298Z,62.23
2018-12-03T04:45:32.986Z,61.07
2018-12-03T04:48:03.958Z,59.00
2018-12-03T04:50:34.356Z,57.97
2018-12-03T04:53:04.396Z,58.33
2018-12-03T04:55:35.359Z,62.83
2018-12-03T04:58:06.610Z,66.30
2018-12-03T05:00:37.768Z,73.17
2018-12-03T05:03:07.757Z,68.33
2018-12-03T05:05:38.596Z,64.53
2018-12-03T05:08:09.387Z,60.40
2018-12-03T05:10:39.568Z,64.60
2018-12-03T05:13:10.448Z,64.83
2018-12-03T05:15:40.428Z,58.93
2018-12-03T05:18:14.611Z,56.93
2018-12-03T05:20:44.930Z,57.67
2018-12-03T05:23:15.058Z,57.20
2018-12-03T05:25:45.811Z,56.47
2018-12-03T05:28:15.517Z,61.97
2018-12-03T05:30:45.437Z,63.93
2018-12-03T05:33:15.879Z,59.87
2018-12-03T05:35:46.080Z,59.43
2018-12-03T05:38:16.298Z,65.27
2018-12-03T05:40:46.468Z,63.43
2018-12-03T05:43:17.017Z,62.23
2018-12-03T05:45:47.068Z,60.60
2018-12-03T05:48:17.617Z,63.37
2018-12-03T05:50:47.527Z,61.60
2018-12-03T05:53:17.518Z,63.97
2018-12-03T05:55:48.027Z,64.07
2018-12-03T05:58:17.948Z,62.40
2018-12-03T06:00:48.398Z,55.83
2018-12-03T06:03:18.497Z,61.33
2018-12-03T06:05:48.631Z,60.60
2018-12-03T06:08:18.778Z,63.33
2018-12-03T06:10:49.461Z,59.70
2018-12-03T06:13:19.718Z,59.27
2018-12-03T06:15:50.108Z,61.13
2018-12-03T06:18:20.129Z,59.67
2018-12-03T06:20:50.278Z,66.53
2018-12-03T06:23:20.868Z,59.40
2018-12-03T06:25:51.027Z,56.67
2018-12-03T06:28:21.778Z,60.17
2018-12-03T06:30:52.402Z,60.10
2018-12-03T06:33:22.674Z,59.80
2018-12-03T06:35:52.919Z,59.50
2018-12-03T06:38:23.687Z,61.70
2018-12-03T06:40:53.808Z,55.87
2018-12-03T06:43:24.379Z,52.83
2018-12-03T06:45:54.958Z,55.77
2018-12-03T06:48:25.838Z,52.37
2018-12-03T06:50:55.981Z,53.33
2018-12-03T06:53:26.038Z,53.57
2018-12-03T06:55:56.521Z,56.33
2018-12-03T06:58:26.758Z,58.50
2018-12-03T07:00:57.080Z,53.50
2018-12-03T07:03:27.380Z,55.70
2018-12-03T07:05:57.817Z,55.00
2018-12-03T07:08:28.158Z,49.83
2018-12-03T07:10:59.518Z,55.10
2018-12-03T07:13:30.319Z,58.87
2018-12-03T07:16:00.266Z,58.03
2018-12-03T07:18:30.648Z,59.10
2018-12-03T07:21:01.139Z,60.97
2018-12-03T07:23:31.188Z,60.40
2018-12-03T07:26:01.208Z,66.30
2018-12-03T07:28:31.279Z,63.27
2018-12-03T07:31:01.230Z,54.30
2018-12-03T07:33:31.409Z,55.80
2018-12-03T07:36:01.558Z,62.60
2018-12-03T07:38:31.501Z,61.57
2018-12-03T07:41:01.580Z,58.37
2018-12-03T07:43:31.628Z,61.07
2018-12-03T07:46:01.772Z,66.57
2018-12-03T07:48:31.729Z,62.87
2018-12-03T07:51:02.453Z,55.13
2018-12-03T07:53:32.919Z,58.33
2018-12-03T07:56:03.058Z,50.73
2018-12-03T07:58:32.659Z,48.17
2018-12-03T08:01:02.779Z,48.40
2018-12-03T08:03:32.819Z,53.13
2018-12-03T08:06:02.780Z,53.33
2018-12-03T08:08:32.868Z,49.83
2018-12-03T08:11:03.079Z,52.77
2018-12-03T08:13:32.988Z,52.83
2018-12-03T08:16:03.009Z,52.30
2018-12-03T08:18:33.048Z,50.63
2018-12-03T08:21:07.419Z,44.10
2018-12-03T08:23:45.859Z,42.07
2018-12-03T08:26:16.429Z,47.70
2018-12-03T08:28:46.608Z,47.70
2018-12-03T08:31:16.789Z,46.67
2018-12-03T08:33:47.029Z,44.83
2018-12-03T08:36:17.159Z,46.90
2018-12-03T08:38:47.238Z,45.03
2018-12-03T08:41:18.009Z,45.83
2018-12-03T08:43:48.599Z,46.70
2018-12-03T08:46:18.749Z,41.70
2018-12-03T08:48:49.249Z,42.90
2018-12-03T08:51:19.399Z,47.10
2018-12-03T08:53:50.228Z,41.67
2018-12-03T08:56:21.552Z,40.63
2018-12-03T08:58:51.768Z,45.57
2018-12-03T09:01:23.781Z,44.43
2018-12-03T09:04:01.021Z,44.27
2018-12-03T09:06:31.080Z,38.80
2018-12-03T09:09:01.049Z,41.47
2018-12-03T09:11:31.738Z,45.40
2018-12-03T09:14:02.329Z,45.53
2018-12-03T09:16:32.499Z,44.67
2018-12-03T09:19:02.650Z,43.47
2018-12-03T09:21:32.769Z,45.87
2018-12-03T09:24:02.747Z,39.67
2018-12-03T09:26:33.510Z,41.97
2018-12-03T09:29:03.628Z,40.77
2018-12-03T09:31:33.628Z,45.10
2018-12-03T09:34:03.719Z,45.50
2018-12-03T09:36:34.168Z,40.53
2018-12-03T09:39:13.549Z,43.60
2018-12-03T09:41:44.409Z,43.17
2018-12-03T09:44:14.409Z,43.93
2018-12-03T09:46:44.492Z,43.00
2018-12-03T09:49:14.768Z,47.43
2018-12-03T09:51:45.030Z,46.07
2018-12-03T09:54:15.299Z,43.40
2018-12-03T09:56:47.618Z,40.90
2018-12-03T09:59:20.029Z,45.33
2018-12-03T10:01:52.568Z,51.10
2018-12-03T10:04:36.428Z,42.30
2018-12-03T10:07:06.609Z,42.60
2018-12-03T10:09:41.642Z,38.57
2018-12-03T10:12:12.098Z,36.70
2018-12-03T10:14:42.909Z,39.33
2018-12-03T10:17:13.358Z,41.80
2018-12-03T10:19:43.316Z,37.07
2018-12-03T10:22:13.237Z,39.57
2018-12-03T10:24:43.249Z,41.07
2018-12-03T10:27:15.210Z,37.13
2018-12-03T10:29:45.632Z,43.33
2018-12-03T10:32:20.779Z,41.00
2018-12-03T10:34:50.949Z,41.43
2018-12-03T10:37:22.549Z,45.03
2018-12-03T10:39:53.700Z,51.97
2018-12-03T10:42:23.710Z,47.20
2018-12-03T10:44:53.779Z,49.73
2018-12-03T10:47:23.878Z,50.33
2018-12-03T10:49:53.891Z,46.33
2018-12-03T10:52:24.850Z,46.87
2018-12-03T10:54:55.069Z,45.70
2018-12-03T10:57:25.579Z,46.53
2018-12-03T10:59:56.803Z,46.93
2018-12-03T11:02:36.949Z,45.30
2018-12-03T11:05:13.869Z,49.10
2018-12-03T11:07:44.189Z,44.00
2018-12-03T11:10:13.898Z,44.43
2018-12-03T11:12:48.480Z,40.23
2018-12-03T11:15:18.778Z,41.70
2018-12-03T11:17:49.020Z,39.60
2018-12-03T11:20:19.478Z,39.83
2018-12-03T11:22:49.540Z,37.87
2018-12-03T11:25:20.778Z,39.63
2018-12-03T11:27:52.069Z,40.10
2018-12-03T11:30:22.369Z,42.67
2018-12-03T11:32:53.545Z,45.20
2018-12-03T11:35:28.669Z,40.37
2018-12-03T11:38:09.129Z,38.53
2018-12-03T11:40:49.497Z,43.50
2018-12-03T11:43:19.510Z,48.27
2018-12-03T11:45:49.409Z,45.77
2018-12-03T11:48:19.430Z,45.77
2018-12-03T11:50:49.598Z,48.73
2018-12-03T11:53:19.310Z,48.13
2018-12-03T11:55:49.579Z,49.60
2018-12-03T11:58:26.079Z,49.10
2018-12-03T12:01:02.958Z,49.27
2018-12-03T12:03:33.169Z,45.83
2018-12-03T12:06:03.089Z,49.07
2018-12-03T12:08:33.149Z,49.50
2018-12-03T12:11:02.843Z,47.47
2018-12-03T12:13:32.699Z,48.93
2018-12-03T12:16:02.950Z,53.50
2018-12-03T12:18:33.018Z,48.53
2018-12-03T12:21:03.058Z,51.83
2018-12-03T12:23:33.058Z,48.23
2018-12-03T12:26:03.318Z,46.73
2018-12-03T12:28:38.058Z,51.00
2018-12-03T12:31:03.549Z,49.20
2018-12-03T12:33:33.489Z,48.40
2018-12-03T12:36:03.549Z,45.33
2018-12-03T12:38:33.529Z,42.63
2018-12-03T12:41:03.149Z,46.63
2018-12-03T12:43:33.277Z,52.93
2018-12-03T12:46:08.213Z,50.23
2018-12-03T12:48:38.323Z,51.33
2018-12-03T12:51:08.598Z,51.80
2018-12-03T12:53:38.837Z,49.03
2018-12-03T12:56:08.728Z,52.77
2018-12-03T12:58:38.972Z,49.40
2018-12-03T13:01:09.088Z,45.70
2018-12-03T13:03:39.088Z,50.57
2018-12-03T13:06:09.288Z,49.17
2018-12-03T13:08:39.557Z,46.70
2018-12-03T13:11:09.877Z,46.90
2018-12-03T13:13:40.496Z,46.83
2018-12-03T13:16:10.816Z,48.17
2018-12-03T13:18:41.207Z,48.00
2018-12-03T13:21:11.158Z,49.10
2018-12-03T13:23:41.176Z,45.47
2018-12-03T13:26:11.696Z,51.03
2018-12-03T13:28:41.787Z,44.87
2018-12-03T13:31:11.716Z,47.23
2018-12-03T13:33:42.078Z,47.90
2018-12-03T13:36:12.470Z,46.43
2018-12-03T13:38:42.596Z,43.60
2018-12-03T13:41:12.837Z,39.77
2018-12-03T13:43:43.358Z,43.27
2018-12-03T13:46:13.576Z,42.73
2018-12-03T13:48:43.577Z,50.00
2018-12-03T13:51:13.842Z,50.10
2018-12-03T13:53:43.886Z,48.20
2018-12-03T13:56:14.237Z,51.60
2018-12-03T13:58:44.227Z,48.47
2018-12-03T14:01:14.298Z,41.17
2018-12-03T14:03:44.367Z,43.30
2018-12-03T14:06:23.637Z,41.27
2018-12-03T14:09:15.336Z,39.40
2018-12-03T14:11:58.099Z,39.83
2018-12-03T14:16:48.191Z,43.57
2018-12-03T14:19:24.127Z,44.97
2018-12-03T14:22:16.216Z,46.27
2018-12-03T14:24:46.327Z,42.80
2018-12-03T14:27:19.366Z,43.50
2018-12-03T14:29:49.267Z,39.10
2018-12-03T14:32:19.475Z,41.80
2018-12-03T14:34:49.687Z,44.43
2018-12-03T14:37:19.826Z,46.27
2018-12-03T14:39:50.037Z,50.50
2018-12-03T14:42:20.076Z,50.63
2018-12-03T14:44:49.643Z,52.60
2018-12-03T14:47:20.046Z,55.27
2018-12-03T14:49:50.386Z,53.60
2018-12-03T14:52:20.940Z,59.40
2018-12-03T14:54:51.158Z,58.90
2018-12-03T14:57:21.217Z,61.37
2018-12-03T14:59:51.305Z,61.27
2018-12-03T15:02:21.626Z,61.73
2018-12-03T15:04:52.556Z,61.93
2018-12-03T15:07:22.966Z,64.43
2018-12-03T15:09:53.688Z,67.10
2018-12-03T15:12:25.878Z,60.10
2018-12-03T15:14:56.126Z,60.83
2018-12-03T15:17:26.327Z,59.37
2018-12-03T15:19:58.454Z,60.83
2018-12-03T15:22:28.695Z,63.67
2018-12-03T15:24:58.706Z,65.03
2018-12-03T15:27:28.917Z,64.93
2018-12-03T15:29:59.107Z,61.67
2018-12-03T15:32:29.197Z,60.20
2018-12-03T15:34:59.306Z,58.93
2018-12-03T15:37:29.216Z,46.30
2018-12-03T15:39:59.326Z,45.13
2018-12-03T15:42:29.346Z,50.67
2018-12-03T15:44:59.716Z,50.83
2018-12-03T15:47:29.655Z,47.97
2018-12-03T15:49:59.666Z,46.60
2018-12-03T15:52:29.786Z,46.70
2018-12-03T15:55:00.059Z,43.13
2018-12-03T15:57:30.046Z,40.10
2018-12-03T16:00:00.387Z,39.97
2018-12-03T16:02:30.426Z,44.93
2018-12-03T16:05:00.297Z,39.47
2018-12-03T16:07:30.146Z,33.33
2018-12-03T16:10:01.947Z,34.63
2018-12-03T16:12:32.246Z,44.43
2018-12-03T16:15:02.347Z,36.20
2018-12-03T16:17:32.911Z,35.47
2018-12-03T16:20:03.426Z,33.53
2018-12-03T16:22:33.647Z,53.13
2018-12-03T16:25:03.935Z,45.73
2018-12-03T16:27:40.527Z,41.37
2018-12-03T16:30:15.091Z,40.37
2018-12-03T16:32:44.256Z,45.27
2018-12-03T16:35:14.406Z,44.17
2018-12-03T16:37:44.396Z,43.90
2018-12-03T16:40:14.586Z,42.30
2018-12-03T16:42:44.736Z,44.20
2018-12-03T16:45:14.927Z,37.40
2018-12-03T16:47:44.986Z,40.03
2018-12-03T16:50:14.948Z,38.73
2018-12-03T16:52:44.939Z,43.20
2018-12-03T16:55:14.967Z,40.13
2018-12-03T16:57:45.127Z,41.10
2018-12-03T17:00:16.506Z,41.93
2018-12-03T17:02:46.487Z,41.43
2018-12-03T17:05:16.616Z,43.33
2018-12-03T17:07:47.258Z,38.27
2018-12-03T17:10:19.403Z,41.93
2018-12-03T17:12:51.597Z,37.57
2018-12-03T17:15:21.847Z,41.13
2018-12-03T17:18:01.396Z,41.60
2018-12-03T17:20:41.115Z,36.33
2018-12-03T17:23:34.267Z,37.40
2018-12-03T17:38:15.416Z,39.03
2018-12-03T17:40:44.778Z,40.43
2018-12-03T17:43:14.353Z,38.20
2018-12-03T17:45:43.813Z,41.10
2018-12-03T17:48:13.174Z,41.83
2018-12-03T17:50:49.054Z,42.23
2018-12-03T17:53:18.395Z,42.17
2018-12-03T17:55:47.735Z,45.50
2018-12-03T17:58:16.975Z,46.87
2018-12-03T18:00:46.354Z,40.63
2018-12-03T18:03:15.814Z,40.67
2018-12-03T18:05:45.195Z,41.03
2018-12-03T18:08:14.655Z,43.77
2018-12-03T18:10:44.295Z,42.73
2018-12-03T18:13:13.676Z,43.20
2018-12-03T18:15:43.318Z,38.63
2018-12-03T18:18:12.738Z,40.43
2018-12-03T18:20:42.134Z,40.90
2018-12-03T18:23:11.694Z,40.10
2018-12-03T18:25:41.035Z,40.00
2018-12-03T18:28:10.376Z,40.80
2018-12-03T18:30:39.716Z,38.93
2018-12-03T18:33:09.056Z,39.20
2018-12-03T18:36:06.939Z,37.03
2018-12-03T18:38:34.136Z,40.57
2018-12-03T18:41:03.421Z,35.03
2018-12-03T18:43:30.196Z,34.43
2018-12-03T18:45:57.256Z,32.90
2018-12-03T18:48:24.496Z,39.20
2018-12-03T18:50:52.017Z,35.50
2018-12-03T18:53:20.051Z,35.23
2018-12-03T18:55:47.642Z,38.70
2018-12-03T18:58:14.716Z,40.90
2018-12-03T19:00:41.796Z,39.67
2018-12-03T19:03:08.940Z,41.23
2018-12-03T19:05:35.976Z,40.93
2018-12-03T19:08:03.175Z,33.70
2018-12-03T19:10:37.075Z,40.17
2018-12-03T19:13:04.096Z,40.00
2018-12-03T19:15:31.096Z,38.37
2018-12-03T19:17:58.116Z,33.77
2018-12-03T19:20:25.195Z,36.70
2018-12-03T19:22:52.176Z,43.83
2018-12-03T19:25:19.116Z,37.73
2018-12-03T19:27:46.155Z,34.60
2018-12-03T19:30:13.077Z,42.03
2018-12-03T19:32:40.136Z,40.97
2018-12-03T19:35:07.176Z,41.20
2018-12-03T19:37:34.237Z,39.13
2018-12-03T19:40:01.337Z,43.80
2018-12-03T19:42:28.458Z,36.10
2018-12-03T19:44:55.495Z,41.70
2018-12-03T19:47:23.175Z,41.40
2018-12-03T19:49:50.215Z,45.33
2018-12-03T19:52:17.274Z,42.53
2018-12-03T19:54:44.296Z,38.67
2018-12-03T19:57:11.315Z,45.50
2018-12-03T19:59:38.300Z,37.10
2018-12-03T20:02:05.476Z,39.53
2018-12-03T20:04:38.854Z,40.93
2018-12-03T20:07:05.976Z,37.40
2018-12-03T20:09:33.036Z,41.67
2018-12-03T20:12:00.521Z,39.83
2018-12-03T20:14:27.675Z,38.97
2018-12-03T20:16:54.769Z,41.33
2018-12-03T20:19:22.669Z,44.03
2018-12-03T20:21:49.728Z,43.53
2018-12-03T20:24:17.667Z,39.27
2018-12-03T20:26:44.829Z,35.90
2018-12-03T20:29:12.026Z,39.93
2018-12-03T20:31:40.628Z,37.17
2018-12-03T20:34:09.127Z,37.83
2018-12-03T20:36:37.609Z,37.67
2018-12-03T20:39:19.560Z,37.97
2018-12-03T20:41:46.716Z,38.63
2018-12-03T20:44:13.979Z,36.63
2018-12-03T20:46:42.675Z,32.40
2018-12-03T20:49:14.677Z,31.37
2018-12-03T20:51:41.839Z,37.07
2018-12-03T20:54:08.775Z,39.43
2018-12-03T20:56:42.782Z,35.10
2018-12-03T20:59:09.795Z,36.00
2018-12-03T21:01:36.817Z,35.80
2018-12-03T21:04:03.895Z,38.53
2018-12-03T21:06:30.875Z,34.07
2018-12-03T21:08:57.955Z,32.87
2018-12-03T21:11:24.976Z,32.30
2018-12-03T21:13:51.995Z,31.63
2018-12-03T21:16:18.937Z,34.80
2018-12-03T21:18:46.052Z,34.00
2018-12-03T21:21:13.370Z,32.97
2018-12-03T21:23:40.350Z,32.53
2018-12-03T21:26:07.509Z,31.13
2018-12-03T21:28:41.410Z,34.23
2018-12-03T21:31:08.430Z,25.80
2018-12-03T21:33:35.410Z,29.87
2018-12-03T21:36:02.478Z,26.93
2018-12-03T21:38:29.530Z,26.00
2018-12-03T21:40:56.570Z,27.10
2018-12-03T21:43:23.571Z,29.53
2018-12-03T21:45:50.670Z,27.10
2018-12-03T21:48:17.631Z,27.97
2018-12-03T21:50:44.650Z,28.77
2018-12-03T21:53:11.691Z,31.90
2018-12-03T21:55:38.771Z,31.60
2018-12-03T21:58:05.781Z,26.77
2018-12-03T22:00:32.870Z,29.13
2018-12-03T22:02:59.831Z,29.47
2018-12-03T22:05:26.870Z,28.50
2018-12-03T22:07:53.872Z,30.13
2018-12-03T22:10:20.891Z,29.60
2018-12-03T22:12:47.971Z,31.40
2018-12-03T22:15:14.972Z,36.67
2018-12-03T22:17:42.032Z,30.93
2018-12-03T22:20:09.252Z,29.13
2018-12-03T22:22:37.294Z,29.00
2018-12-03T22:25:04.615Z,30.90
2018-12-03T22:27:31.637Z,32.30
2018-12-03T22:30:06.951Z,34.70
2018-12-03T22:32:33.970Z,35.63
2018-12-03T22:35:01.031Z,34.33
2018-12-03T22:37:28.357Z,34.27
2018-12-03T22:39:55.371Z,40.13
2018-12-03T22:42:22.371Z,39.97
2018-12-03T22:44:49.413Z,41.67
2018-12-03T22:47:16.430Z,53.60
2018-12-03T22:49:43.473Z,55.60
2018-12-03T22:52:10.512Z,53.07
2018-12-03T22:54:37.931Z,44.10
2018-12-03T22:57:04.970Z,48.30
2018-12-03T22:59:31.991Z,46.40
2018-12-03T23:01:59.451Z,48.70
2018-12-03T23:04:26.811Z,45.13
2018-12-03T23:06:53.871Z,45.83
2018-12-03T23:09:20.935Z,38.50
2018-12-03T23:11:48.072Z,36.47
2018-12-03T23:14:15.131Z,35.27
2018-12-03T23:16:42.171Z,35.87
2018-12-03T23:19:09.190Z,36.13
2018-12-03T23:21:36.271Z,33.63
2018-12-03T23:24:03.330Z,32.07
2018-12-03T23:26:30.370Z,31.43
2018-12-03T23:28:57.369Z,28.70
2018-12-03T23:31:24.402Z,29.53
2018-12-03T23:33:51.450Z,32.97
2018-12-03T23:36:18.446Z,30.93
2018-12-03T23:38:45.570Z,33.33
2018-12-03T23:41:12.593Z,31.97
2018-12-03T23:43:39.610Z,30.70
2018-12-03T23:46:06.690Z,25.57
2018-12-03T23:48:33.653Z,29.10
2018-12-03T23:51:07.972Z,34.23
2018-12-03T23:53:34.935Z,34.40
2018-12-03T23:56:02.013Z,32.27
2018-12-03T23:58:29.060Z,31.50
